Hovedside
METAR-TAF:

METAR-TAF

Lufthavner :

Notodden lufthavn

Notodden, Norge

breddegrad: 59-34N, lengdegrad: 009-13E, høyde over havet: 19 m

Gjeldene værobservasjon

Denne rapporten ble laget for 11 timer og 26 minutter siden, klokken 17:50 UTC
Vind 7 kt fra Vest
Temperatur 8°C
Luftfuktighet 46%
Trykk 1024 hPa
Sikt 10 km eller mer
ingen skyer under 1500 m og ingen bygeskyer

METAR: ENNO 211750Z 28007KT CAVOK 08/M03 Q1024

Tid: 06:16 (05:16 UTC)

Varsel

Denne rapporten ble laget for 18 timer og 16 minutter siden, klokken 11:00 UTC
Varsel gyldig fra 21. klokken 12 UTC til 21. klokken 18 UTC
Vind 8 kt fra Vest-nordvest
Sikt 10 km eller mer
Få skyer i en høyde av 4000 ft
Midlertidig
fra 21. klokken 12 UTC til 21. klokken 16 UTC
Vind 15 kt fra Vest-nordvest med vindkast opp mot 25 kt

TAF: ENNO 211100Z 2112/2118 30008KT 9999 FEW040 TEMPO 2112/2116 29015G25KT

Værobservasjoner og værvarsel for over 4000 flyplasser (METAR- og TAF-rapporter).

Tilgjengelige stasjoner er representert av de røde og gule prikkene på kartet.

Hold musepekeren over prikken for å se navnet på stasjonen.

Klikk så for å se værobservasjoner og -varsler.

For å forandre kartet kan du klikke på den grønne knappen med svart kryss for å zoome inn, på den grønne knappen med strek for å zoome ut, eller på de grønne pilene for å se tilstøtende kart.


METAR-TAF: